< Typhoon 195302 1953 Season Typhoon 195304 >
Typhoon 195303 (NO-NAME)
General InformationTrack Information on Google Maps || Disaster Info.ResourceGoogle EarthGE AnimationAtom FeedGeoJSON
Detalied Best Track (Time Zone = UTC)
Year Month Day Hour Lat. Long. Pressure (hPa) Wind (kt) Class Image Chart
1953 6 21 12 8.0 141.0 1006 0 2 -- Chart
1953 6 21 18 8.0 139.0 1006 0 2 -- Chart
1953 6 22 00 8.0 137.0 1006 0 2 -- Chart
1953 6 22 06 8.8 135.6 1006 0 2 -- Chart
1953 6 22 12 9.5 134.5 1004 0 2 -- Chart
1953 6 22 18 10.3 133.3 1004 0 2 -- Chart
1953 6 23 00 10.9 132.5 1004 0 2 -- Chart
1953 6 23 06 11.7 131.2 1004 0 2 -- Chart
1953 6 23 12 12.2 130.4 1004 0 2 -- Chart
1953 6 23 18 12.7 129.3 1004 0 2 -- Chart
1953 6 24 00 13.3 128.3 1003 0 9 -- Chart
1953 6 24 06 13.8 127.0 1002 0 9 -- Chart
1953 6 24 12 14.6 126.2 1002 0 9 -- Chart
1953 6 24 18 15.1 125.1 1002 0 9 -- Chart
1953 6 25 00 15.3 123.9 1000 0 9 -- Chart
1953 6 25 06 15.5 123.4 1000 0 9 -- Chart
1953 6 25 12 15.6 123.0 1000 0 9 -- Chart
1953 6 25 18 16.1 122.5 1000 0 2 -- Chart
1953 6 26 00 16.8 121.5 1000 0 2 -- Chart
1953 6 26 06 16.3 120.2 1000 0 2 -- Chart
1953 6 26 12 16.0 119.1 1000 0 2 -- Chart
1953 6 26 18 16.8 118.0 1000 0 2 -- Chart
1953 6 27 00 18.0 118.0 999 0 2 -- Chart
1953 6 27 06 18.5 118.2 999 0 2 -- Chart
1953 6 27 12 19.0 118.5 998 0 2 -- Chart
1953 6 27 18 20.0 118.5 998 0 2 -- Chart
1953 6 28 00 21.1 117.9 998 0 2 -- Chart
1953 6 28 06 21.4 117.0 998 0 2 -- Chart
1953 6 28 12 21.6 116.0 998 0 2 -- Chart
1953 6 28 18 21.0 115.0 998 0 2 -- Chart
1953 6 29 00 20.0 114.6 996 0 2 -- Chart
1953 6 29 06 19.3 114.1 996 0 2 -- Chart
1953 6 29 12 19.3 113.5 994 0 2 -- Chart
1953 6 29 18 19.4 113.2 994 0 2 -- Chart
1953 6 30 00 19.5 113.0 992 0 2 -- Chart
1953 6 30 06 19.5 111.8 992 0 2 -- Chart
1953 6 30 12 19.3 110.7 992 0 2 -- Chart
1953 6 30 18 19.8 109.5 992 0 2 -- Chart
1953 7 1 00 20.4 109.0 992 0 2 -- Chart
1953 7 1 06 21.0 107.0 992 0 2 -- Chart
1953 7 1 12 21.5 107.4 992 0 2 -- Chart
1953 7 1 18 22.0 106.7 992 0 2 -- Chart
1953 7 2 00 22.8 106.0 992 0 2 -- Chart
1953 7 2 06 22.8 106.0 992 0 2 -- Chart
1953 7 2 12 22.8 106.0 994 0 6 -- Chart
1953 7 2 18 22.9 105.9 994 0 6 -- Chart
1953 7 3 00 23.0 105.7 996 0 6 -- Chart
Japan Meteorological Agency Best Track Data | Correction Date : 1990-10-17
< Typhoon 195302 1953 Season Typhoon 195304 >

Help